Terminal Aerodrome Forecast
Issued by NWS Hastings, NE

Home | Current Version | Previous Version | Text Only | Print | Product List | Glossary On
Versions: 1 2 3 4 5 6 7 8 9 10 11 12 13
000
FTUS43 KGID 121722
TAFGRI
TAF
KGRI 121722Z 1218/1318 28010KT P6SM FEW120
     FM122200 25009KT P6SM FEW120
     FM130700 27013KT P6SM FEW200 WS006/32043KT
     FM131200 31017G25KT P6SM SCT120 BKN200 WS006/32047KT
     FM131500 31024G36KT P6SM FEW200=

USA.gov is the U.S. government's official web portal to all federal, state and local government web resources and services.